createdAt,value
2022-10-19T00:02:01.455Z,44.23
2022-10-19T00:04:30.706Z,44.39
2022-10-19T00:06:58.622Z,44.48
2022-10-19T00:09:26.525Z,44.27
2022-10-19T00:11:54.348Z,44.39
2022-10-19T00:14:24.384Z,44.12
2022-10-19T00:16:54.488Z,44.38
2022-10-19T00:19:25.397Z,44.24
2022-10-19T00:21:54.954Z,43.76
2022-10-19T00:24:23.496Z,43.98
2022-10-19T00:26:51.564Z,43.92
2022-10-19T00:29:20.294Z,44.54
2022-10-19T00:31:50.349Z,44.17
2022-10-19T00:34:18.649Z,44.14
2022-10-19T00:36:46.650Z,44.11
2022-10-19T00:39:18.412Z,43.73
2022-10-19T00:41:48.076Z,44.50
2022-10-19T00:44:59.649Z,43.82
2022-10-19T00:47:28.229Z,44.58
2022-10-19T00:49:58.424Z,44.32
2022-10-19T00:52:27.701Z,44.42
2022-10-19T00:54:59.194Z,44.32
2022-10-19T00:57:30.845Z,44.00
2022-10-19T01:00:02.438Z,44.16
2022-10-19T01:02:41.827Z,43.73
2022-10-19T01:05:10.735Z,44.51
2022-10-19T01:10:46.073Z,43.81
2022-10-19T01:13:29.950Z,43.88
2022-10-19T01:16:03.200Z,43.99
2022-10-19T01:18:42.649Z,43.71
2022-10-19T01:21:27.542Z,43.83
2022-10-19T01:24:35.827Z,43.78
2022-10-19T01:27:45.773Z,43.75
2022-10-19T01:30:18.757Z,43.60
2022-10-19T01:32:59.865Z,43.69
2022-10-19T01:35:34.311Z,43.69
2022-10-19T01:38:29.232Z,43.40
2022-10-19T01:41:09.447Z,44.05
2022-10-19T01:43:44.945Z,43.57
2022-10-19T01:46:19.514Z,44.00
2022-10-19T01:48:53.943Z,43.91
2022-10-19T01:51:26.879Z,43.95
2022-10-19T01:53:56.575Z,44.29
2022-10-19T01:56:28.338Z,43.98
2022-10-19T01:58:58.884Z,44.04
2022-10-19T02:01:32.316Z,43.65
2022-10-19T02:04:01.876Z,44.05
2022-10-19T02:06:30.035Z,43.81
2022-10-19T02:08:58.070Z,44.02
2022-10-19T02:11:26.253Z,44.00
2022-10-19T02:14:02.637Z,43.50
2022-10-19T02:16:36.406Z,43.39
2022-10-19T02:19:05.459Z,43.88
2022-10-19T02:21:33.629Z,43.74
2022-10-19T02:24:01.818Z,43.54
2022-10-19T02:26:30.296Z,44.06
2022-10-19T02:28:59.235Z,44.08
2022-10-19T02:31:27.758Z,43.64
2022-10-19T02:33:57.484Z,43.59
2022-10-19T02:36:26.166Z,43.83
2022-10-19T02:38:54.386Z,43.78
2022-10-19T02:41:27.674Z,43.67
2022-10-19T02:44:00.823Z,43.39
2022-10-19T02:46:34.163Z,43.56
2022-10-19T02:49:05.344Z,43.87
2022-10-19T02:51:38.516Z,43.15
2022-10-19T02:54:09.021Z,43.46
2022-10-19T02:56:37.011Z,43.85
2022-10-19T02:59:05.894Z,43.87
2022-10-19T03:01:47.777Z,43.33
2022-10-19T03:04:29.000Z,43.54
2022-10-19T03:07:01.158Z,43.75
2022-10-19T03:09:31.081Z,43.97
2022-10-19T03:11:59.299Z,43.91
2022-10-19T03:14:39.616Z,43.65
2022-10-19T03:17:14.205Z,43.41
2022-10-19T03:22:37.511Z,43.53
2022-10-19T03:25:06.157Z,43.37
2022-10-19T03:27:34.360Z,43.38
2022-10-19T03:30:02.765Z,43.28
2022-10-19T03:32:30.958Z,43.39
2022-10-19T03:35:00.524Z,43.76
2022-10-19T03:37:28.640Z,43.86
2022-10-19T03:39:56.783Z,43.32
2022-10-19T03:42:32.388Z,44.10
2022-10-19T03:45:00.737Z,43.83
2022-10-19T03:47:28.934Z,43.40
2022-10-19T03:49:57.450Z,43.61
2022-10-19T03:52:26.804Z,43.56
2022-10-19T03:54:54.847Z,43.37
2022-10-19T03:57:22.825Z,43.39
2022-10-19T03:59:50.780Z,43.40
2022-10-19T04:02:18.595Z,43.12
2022-10-19T04:04:46.628Z,43.16
2022-10-19T04:07:14.561Z,43.33
2022-10-19T04:09:43.940Z,43.34
2022-10-19T04:12:11.782Z,43.05
2022-10-19T04:14:56.330Z,43.46
2022-10-19T04:17:25.466Z,43.52
2022-10-19T04:19:53.343Z,43.91
2022-10-19T04:22:21.348Z,43.86
2022-10-19T04:24:50.613Z,43.68
2022-10-19T04:27:18.722Z,43.64
2022-10-19T04:29:46.563Z,43.70
2022-10-19T04:32:14.482Z,43.51
2022-10-19T04:34:42.368Z,43.69
2022-10-19T04:37:10.320Z,43.39
2022-10-19T04:39:40.919Z,43.46
2022-10-19T04:42:10.125Z,43.52
2022-10-19T04:44:37.965Z,43.26
2022-10-19T04:47:05.821Z,43.30
2022-10-19T04:49:33.626Z,43.59
2022-10-19T04:52:01.551Z,43.20
2022-10-19T04:54:29.481Z,43.33
2022-10-19T04:56:57.268Z,43.68
2022-10-19T04:59:26.500Z,43.65
2022-10-19T05:01:55.397Z,43.76
2022-10-19T05:04:23.938Z,44.00
2022-10-19T05:06:53.559Z,43.79
2022-10-19T05:09:22.201Z,43.94
2022-10-19T05:11:51.207Z,43.40
2022-10-19T05:14:19.277Z,43.56
2022-10-19T05:16:49.005Z,44.27
2022-10-19T05:19:16.993Z,43.98
2022-10-19T05:21:44.925Z,44.30
2022-10-19T05:24:14.291Z,44.68
2022-10-19T05:26:43.168Z,44.63
2022-10-19T05:29:12.959Z,44.97
2022-10-19T05:31:41.160Z,44.50
2022-10-19T05:34:11.288Z,44.71
2022-10-19T05:36:42.389Z,44.71
2022-10-19T05:39:20.768Z,44.97
2022-10-19T05:41:54.198Z,45.02
2022-10-19T05:44:25.326Z,45.01
2022-10-19T05:46:53.765Z,44.89
2022-10-19T05:49:23.978Z,45.19
2022-10-19T05:51:52.226Z,45.38
2022-10-19T05:54:22.701Z,45.56
2022-10-19T05:56:53.190Z,45.66
2022-10-19T05:59:23.877Z,45.66
2022-10-19T06:01:52.140Z,45.59
2022-10-19T06:04:22.054Z,45.29
2022-10-19T06:06:49.928Z,45.74
2022-10-19T06:09:17.716Z,45.47
2022-10-19T06:11:45.500Z,45.29
2022-10-19T06:14:15.058Z,45.86
2022-10-19T06:16:45.782Z,45.63
2022-10-19T06:19:13.847Z,45.47
2022-10-19T06:21:46.048Z,45.79
2022-10-19T06:24:14.292Z,45.84
2022-10-19T06:26:47.040Z,45.97
2022-10-19T06:29:29.274Z,46.11
2022-10-19T06:31:59.801Z,46.18
2022-10-19T06:34:27.869Z,46.80
2022-10-19T06:36:57.197Z,47.00
2022-10-19T06:39:25.184Z,46.73
2022-10-19T06:41:53.062Z,47.30
2022-10-19T06:44:51.693Z,46.40
2022-10-19T06:47:22.174Z,47.37
2022-10-19T06:49:50.227Z,47.42
2022-10-19T06:52:20.308Z,46.88
2022-10-19T06:54:48.571Z,47.17
2022-10-19T06:57:16.685Z,47.04
2022-10-19T06:59:44.917Z,47.25
2022-10-19T07:02:19.156Z,46.57
2022-10-19T07:04:47.394Z,47.12
2022-10-19T07:07:15.543Z,46.78
2022-10-19T07:09:45.122Z,45.78
2022-10-19T07:12:23.345Z,45.63
2022-10-19T07:14:51.294Z,45.88
2022-10-19T07:17:19.212Z,45.91
2022-10-19T07:19:47.112Z,45.78
2022-10-19T07:22:20.354Z,45.60
2022-10-19T07:24:53.186Z,45.24
2022-10-19T07:27:21.265Z,45.00
2022-10-19T07:29:49.167Z,45.02
2022-10-19T07:32:29.969Z,45.24
2022-10-19T07:35:47.087Z,44.79
2022-10-19T07:38:15.166Z,45.29
2022-10-19T07:40:51.041Z,44.21
2022-10-19T07:43:19.271Z,44.66
2022-10-19T07:45:47.140Z,44.97
2022-10-19T07:48:18.250Z,44.27
2022-10-19T07:50:49.135Z,44.58
2022-10-19T07:53:42.363Z,44.29
2022-10-19T07:56:15.208Z,44.39
2022-10-19T07:59:10.954Z,43.96
2022-10-19T08:01:45.034Z,44.36
2022-10-19T08:04:48.991Z,44.26
2022-10-19T08:07:07.000Z,44.61
2022-10-19T08:09:58.036Z,44.54
2022-10-19T08:12:30.357Z,44.54
2022-10-19T08:14:58.547Z,44.42
2022-10-19T08:17:26.765Z,44.87
2022-10-19T08:19:54.809Z,44.97
2022-10-19T08:22:22.803Z,44.51
2022-10-19T08:24:50.837Z,45.17
2022-10-19T08:27:18.807Z,45.09
2022-10-19T08:29:48.365Z,44.81
2022-10-19T08:32:16.388Z,45.36
2022-10-19T08:34:44.710Z,45.29
2022-10-19T08:37:20.268Z,44.81
2022-10-19T08:40:13.391Z,45.17
2022-10-19T08:42:55.194Z,45.41
2022-10-19T08:45:58.455Z,44.88
2022-10-19T08:51:47.626Z,45.61
2022-10-19T08:54:18.066Z,45.74
2022-10-19T08:56:51.365Z,45.09
2022-10-19T08:59:40.384Z,45.21
2022-10-19T09:02:18.967Z,44.48
2022-10-19T09:04:51.716Z,45.03
2022-10-19T09:07:29.031Z,45.43
2022-10-19T09:10:01.305Z,44.92
2022-10-19T09:12:41.104Z,44.10
2022-10-19T09:15:20.129Z,43.77
2022-10-19T09:17:50.635Z,44.37
2022-10-19T09:20:23.741Z,43.78
2022-10-19T09:23:01.729Z,43.31
2022-10-19T09:25:32.677Z,43.94
2022-10-19T09:28:11.714Z,43.45
2022-10-19T09:30:43.881Z,43.55
2022-10-19T09:33:20.164Z,42.95
2022-10-19T09:36:04.090Z,42.46
2022-10-19T09:38:32.553Z,43.69
2022-10-19T09:41:14.178Z,42.48
2022-10-19T09:47:34.913Z,43.15
2022-10-19T09:50:20.265Z,42.89
2022-10-19T10:05:57.703Z,42.61
2022-10-19T10:08:29.421Z,42.69
2022-10-19T10:11:08.063Z,41.07
2022-10-19T10:13:41.970Z,41.20
2022-10-19T10:16:19.925Z,41.59
2022-10-19T10:18:55.542Z,41.21
2022-10-19T10:21:26.982Z,40.81
2022-10-19T10:24:06.964Z,40.28
2022-10-19T10:26:40.820Z,39.39
2022-10-19T10:29:20.116Z,39.94
2022-10-19T10:31:50.939Z,41.21
2022-10-19T10:34:37.582Z,40.45
2022-10-19T10:37:15.135Z,40.31
2022-10-19T10:39:44.279Z,40.33
2022-10-19T10:42:19.132Z,38.07
2022-10-19T10:44:50.383Z,39.37
2022-10-19T10:47:20.488Z,39.48
2022-10-19T10:49:55.551Z,38.25
2022-10-19T10:52:27.658Z,39.41
2022-10-19T10:55:10.241Z,38.97
2022-10-19T11:05:03.636Z,38.89
2022-10-19T11:07:38.017Z,37.77
2022-10-19T11:10:15.703Z,38.09
2022-10-19T11:12:50.700Z,37.54
2022-10-19T11:15:23.894Z,37.11
2022-10-19T11:18:07.627Z,36.46
2022-10-19T11:20:41.856Z,37.39
2022-10-19T11:23:20.373Z,36.66
2022-10-19T11:26:01.370Z,36.34
2022-10-19T11:28:43.796Z,36.16
2022-10-19T11:31:18.877Z,36.46
2022-10-19T11:43:44.251Z,36.32
2022-10-19T11:46:20.436Z,36.33
2022-10-19T11:49:13.420Z,35.32
2022-10-19T11:51:49.792Z,37.11
2022-10-19T11:54:33.373Z,36.00
2022-10-19T11:57:11.813Z,35.46
2022-10-19T11:59:55.688Z,35.70
2022-10-19T12:03:01.552Z,36.02
2022-10-19T12:05:36.528Z,36.32
2022-10-19T12:08:22.293Z,35.41
2022-10-19T12:11:04.031Z,35.39
2022-10-19T12:13:41.042Z,35.24
2022-10-19T12:16:12.397Z,36.10
2022-10-19T12:18:47.215Z,34.96
2022-10-19T12:21:21.185Z,35.13
2022-10-19T12:23:50.119Z,35.53
2022-10-19T12:26:23.107Z,34.96
2022-10-19T12:28:56.966Z,34.53
2022-10-19T12:31:26.875Z,34.93
2022-10-19T12:34:03.095Z,34.06
2022-10-19T12:36:42.905Z,33.56
2022-10-19T12:39:18.714Z,33.93
2022-10-19T12:41:54.759Z,34.43
2022-10-19T12:44:56.356Z,33.40
2022-10-19T12:47:27.323Z,34.29
2022-10-19T12:49:56.168Z,34.22
2022-10-19T12:52:42.095Z,33.27
2022-10-19T12:55:28.604Z,33.17
2022-10-19T12:58:03.585Z,33.29
2022-10-19T13:00:35.127Z,33.17
2022-10-19T13:03:07.455Z,33.07
2022-10-19T13:05:36.996Z,33.57
2022-10-19T13:08:10.603Z,33.20
2022-10-19T13:10:41.718Z,32.98
2022-10-19T13:13:43.185Z,31.99
2022-10-19T13:16:42.670Z,31.04
2022-10-19T13:19:21.132Z,31.71
2022-10-19T13:21:55.235Z,31.34
2022-10-19T13:24:32.679Z,31.25
2022-10-19T13:27:26.887Z,31.43
2022-10-19T13:29:54.848Z,32.17
2022-10-19T13:32:44.933Z,31.07
2022-10-19T13:35:39.367Z,31.00
2022-10-19T13:38:26.866Z,30.92
2022-10-19T13:41:13.215Z,30.81
2022-10-19T13:43:52.277Z,31.74
2022-10-19T13:46:22.736Z,32.23
2022-10-19T13:51:59.833Z,31.13
2022-10-19T13:54:44.815Z,30.91
2022-10-19T13:57:23.936Z,30.77
2022-10-19T14:00:16.646Z,31.62
2022-10-19T14:03:19.180Z,30.75
2022-10-19T14:06:18.435Z,31.18
2022-10-19T14:09:16.723Z,31.51
2022-10-19T14:11:48.617Z,32.15
2022-10-19T14:14:20.153Z,31.59
2022-10-19T14:17:02.971Z,31.53
2022-10-19T14:19:34.466Z,32.13
2022-10-19T14:22:19.564Z,31.65
2022-10-19T14:24:47.534Z,32.56
2022-10-19T14:27:22.821Z,32.07
2022-10-19T14:29:53.296Z,32.51
2022-10-19T14:32:25.995Z,32.52
2022-10-19T14:34:55.631Z,32.53
2022-10-19T14:37:25.851Z,32.40
2022-10-19T14:40:06.554Z,32.02
2022-10-19T14:42:41.652Z,32.37
2022-10-19T14:45:21.185Z,32.12
2022-10-19T14:47:54.308Z,32.67
2022-10-19T14:50:25.782Z,32.66
2022-10-19T14:52:59.492Z,32.68
2022-10-19T14:55:35.327Z,32.32
2022-10-19T14:58:13.403Z,32.74
2022-10-19T15:00:42.436Z,33.21
2022-10-19T15:03:14.330Z,32.80
2022-10-19T15:05:48.798Z,32.65
2022-10-19T15:08:25.277Z,32.89
2022-10-19T15:10:53.956Z,32.99
2022-10-19T15:13:28.572Z,32.80
2022-10-19T15:15:57.055Z,32.98
2022-10-19T15:18:47.489Z,32.94
2022-10-19T15:21:19.046Z,33.05
2022-10-19T15:23:48.548Z,33.63
2022-10-19T15:26:20.285Z,33.50
2022-10-19T15:28:50.769Z,33.42
2022-10-19T15:31:21.056Z,33.51
2022-10-19T15:33:51.637Z,34.02
2022-10-19T15:36:21.039Z,33.76
2022-10-19T15:38:53.121Z,33.94
2022-10-19T15:41:28.716Z,34.24
2022-10-19T15:43:59.924Z,33.93
2022-10-19T15:46:33.285Z,33.99
2022-10-19T15:49:05.411Z,34.39
2022-10-19T15:51:39.365Z,34.52
2022-10-19T15:54:08.253Z,34.84
2022-10-19T15:56:38.178Z,34.55
2022-10-19T15:59:14.837Z,34.40
2022-10-19T16:01:43.793Z,34.54
2022-10-19T16:04:11.837Z,35.22
2022-10-19T16:06:42.322Z,35.23
2022-10-19T16:09:17.132Z,34.79
2022-10-19T16:11:45.458Z,35.00
2022-10-19T16:14:14.628Z,35.28
2022-10-19T16:16:42.972Z,35.50
2022-10-19T16:19:12.160Z,35.63
2022-10-19T16:21:40.095Z,35.37
2022-10-19T16:24:08.167Z,35.25
2022-10-19T16:29:03.774Z,35.43
2022-10-19T16:31:33.105Z,35.43
2022-10-19T16:34:01.045Z,35.81
2022-10-19T16:36:28.909Z,35.77
2022-10-19T16:38:56.683Z,35.71
2022-10-19T16:41:24.772Z,35.59
2022-10-19T16:43:55.733Z,35.64
2022-10-19T16:46:24.277Z,35.78
2022-10-19T16:48:53.934Z,36.48
2022-10-19T16:51:33.995Z,36.69
2022-10-19T16:54:01.993Z,36.35
2022-10-19T16:56:31.191Z,36.97
2022-10-19T16:59:01.393Z,36.75
2022-10-19T17:01:30.506Z,36.67
2022-10-19T17:04:00.101Z,37.23
2022-10-19T17:06:28.932Z,37.48
2022-10-19T17:11:46.205Z,37.37
2022-10-19T17:14:14.024Z,37.64
2022-10-19T17:16:42.006Z,37.38
2022-10-19T17:19:11.848Z,37.63
2022-10-19T17:21:41.978Z,37.74
2022-10-19T17:24:21.066Z,38.21
2022-10-19T17:26:50.472Z,37.99
2022-10-19T17:29:19.265Z,38.12
2022-10-19T17:31:47.326Z,38.54
2022-10-19T17:34:17.556Z,38.20
2022-10-19T17:36:47.191Z,38.70
2022-10-19T17:39:17.931Z,38.50
2022-10-19T17:41:46.372Z,38.82
2022-10-19T17:44:14.358Z,38.54
2022-10-19T17:46:42.457Z,38.66
2022-10-19T17:49:10.843Z,39.05
2022-10-19T17:51:41.116Z,39.17
2022-10-19T17:54:11.830Z,38.93
2022-10-19T17:56:40.075Z,38.97
2022-10-19T17:59:09.249Z,38.84
2022-10-19T18:01:37.620Z,38.48
2022-10-19T18:04:06.161Z,38.87
2022-10-19T18:06:35.909Z,38.44
2022-10-19T18:09:07.114Z,38.60
2022-10-19T18:11:38.579Z,38.27
2022-10-19T18:14:09.011Z,38.64
2022-10-19T18:16:39.649Z,38.61
2022-10-19T18:19:08.726Z,38.43
2022-10-19T18:21:39.509Z,38.15
2022-10-19T18:24:12.814Z,38.52
2022-10-19T18:26:43.368Z,38.38
2022-10-19T18:29:13.312Z,38.38
2022-10-19T18:31:41.618Z,38.18
2022-10-19T18:34:14.874Z,38.55
2022-10-19T18:36:43.178Z,38.46
2022-10-19T18:39:14.044Z,38.24
2022-10-19T18:41:42.396Z,38.26
2022-10-19T18:44:13.758Z,38.61
2022-10-19T18:46:41.945Z,38.51
2022-10-19T18:49:12.494Z,38.38
2022-10-19T18:51:40.588Z,38.66
2022-10-19T18:54:08.691Z,38.67
2022-10-19T18:56:37.976Z,38.55
2022-10-19T18:59:06.161Z,38.75
2022-10-19T19:01:34.482Z,38.77
2022-10-19T19:04:08.339Z,38.83
2022-10-19T19:06:37.234Z,38.35
2022-10-19T19:09:07.837Z,38.37
2022-10-19T19:11:40.799Z,39.09
2022-10-19T19:14:12.126Z,38.52
2022-10-19T19:16:40.814Z,38.89
2022-10-19T19:19:09.147Z,38.97
2022-10-19T19:21:37.453Z,39.06
2022-10-19T19:24:08.140Z,38.74
2022-10-19T19:26:39.926Z,39.15
2022-10-19T19:29:08.453Z,38.90
2022-10-19T19:31:36.566Z,39.20
2022-10-19T19:34:09.285Z,39.38
2022-10-19T19:36:37.580Z,39.07
2022-10-19T19:39:05.903Z,38.93
2022-10-19T19:41:34.373Z,39.22
2022-10-19T19:44:03.535Z,39.36
2022-10-19T19:46:32.172Z,39.59
2022-10-19T19:49:02.764Z,39.62
2022-10-19T19:51:56.220Z,39.27
2022-10-19T19:54:24.864Z,39.92
2022-10-19T19:56:53.923Z,39.60
2022-10-19T19:59:23.334Z,39.90
2022-10-19T20:24:23.335Z,40.23
2022-10-19T20:27:18.157Z,40.83
2022-10-19T20:29:51.755Z,39.91
2022-10-19T20:32:21.068Z,40.33
2022-10-19T20:34:49.112Z,40.38
2022-10-19T20:37:17.235Z,40.61
2022-10-19T20:39:45.168Z,40.21
2022-10-19T21:12:43.193Z,41.12
2022-10-19T21:15:53.684Z,41.88
2022-10-19T21:35:38.687Z,42.30
2022-10-19T21:38:17.898Z,41.42
2022-10-19T21:42:02.043Z,42.20
2022-10-19T21:45:18.423Z,41.36
2022-10-19T22:50:49.582Z,42.72
2022-10-19T22:53:18.112Z,42.34
2022-10-19T22:55:46.378Z,42.60
2022-10-19T22:58:14.889Z,42.86
2022-10-19T23:00:42.827Z,42.62
2022-10-19T23:03:11.044Z,43.00
2022-10-19T23:05:38.895Z,42.85
2022-10-19T23:08:08.643Z,42.91
2022-10-19T23:10:36.535Z,43.09
2022-10-19T23:13:04.543Z,43.06
2022-10-19T23:15:32.456Z,42.90
2022-10-19T23:18:00.478Z,43.24
2022-10-19T23:20:28.354Z,43.31
2022-10-19T23:22:56.325Z,43.58
2022-10-19T23:25:25.509Z,43.80
2022-10-19T23:27:53.379Z,43.50
2022-10-19T23:30:21.293Z,43.30
2022-10-19T23:32:49.087Z,43.38
2022-10-19T23:35:17.098Z,43.51
2022-10-19T23:37:44.893Z,43.97
2022-10-19T23:40:13.485Z,43.46
2022-10-19T23:42:43.010Z,43.83
2022-10-19T23:45:13.096Z,43.47
2022-10-19T23:47:41.188Z,43.97
2022-10-19T23:50:09.732Z,44.21
2022-10-19T23:52:37.602Z,43.92
2022-10-19T23:55:06.374Z,44.29
2022-10-19T23:57:34.569Z,44.41
